METAR Data
IDs: Format: Raw Decoded Include TAF

Data at: 1708 UTC 21 Sep 2019

METAR for:KHCR (Heber City Muni, UT, US)
Text:KHCR 211655Z AUTO 28003KT 10SM CLR 07/03 A3021 RMK AO2
Temperature: 7.0°C ( 45°F)
Dewpoint: 3.0°C ( 37°F) [RH = 76%]
Pressure (altimeter):30.21 inches Hg (1023.1 mb)
Winds:from the W (280 degrees) at 3 MPH (3 knots; 1.5 m/s)
Visibility:10 or more sm (16+ km)
Ceiling:at least 12,000 feet AGL
Clouds:sky clear below 12,000 feet AGL
QC Flag:automated observation with no human augmentation